PWSweather.com
Personal Weather Stations
Station Observations
WISCHPK61
Green Bay Schmitt Park, Green Bay, WI 54311

Green Bay Schmitt ParkGreen Bay, WI 54311

Lat: 44.514277, Lon: -87.935067

Elevation: 735

Station Type: Acu Rite Pro Weather Center model 02032C

http://greenbayweathercam.com

High Low Average
Temperature 21.9°F-5.6°C 8.6°F-13.0°C 15.5°F-9.2°C
Dew Point 19.9°F-6.7°C 5.0°F-15.0°C 12.7°F-10.7°C
Winds Calm Calm Calm Calm Calm SSWCalm SSW
Wind Gusts 2.3 mph3.7 kmh -- --
Humidity 99% 53% 90%
Pressure 29.61 in1002.7 mb 29.36 in994.2 mb -
Precipitation 0.00 in0.0 mm - -
Hour Temp Dew Point Humidity Winds Wind Gusts Pressure Precip Precip Rate Daily Precip Total
12:00 AM 23.0°F-5.0°C 16.9°F-8.4°C 77% Calm Calm -- 29.34 in993.6 mb - 0.00 in0.0 mm 0.00 in0.0 mm
01:00 AM 21.3°F-5.9°C 14.6°F-9.7°C 75% Calm Calm -- 29.36 in994.2 mb - 0.00 in0.0 mm 0.00 in0.0 mm
02:00 AM 18.7°F-7.4°C 18.5°F-7.5°C 99% Calm Calm -- 29.36 in994.2 mb - 0.00 in0.0 mm 0.00 in0.0 mm
03:00 AM 16.2°F-8.8°C 16.0°F-8.9°C 99% Calm Calm -- 29.38 in994.9 mb - 0.00 in0.0 mm 0.00 in0.0 mm
04:00 AM 14.7°F-9.6°C 11.3°F-11.5°C 86% Calm Calm -- 29.39 in995.3 mb - 0.00 in0.0 mm 0.00 in0.0 mm
05:00 AM 12.6°F-10.8°C 12.4°F-10.9°C 99% Calm Calm -- 29.40 in995.6 mb - 0.00 in0.0 mm 0.00 in0.0 mm
06:00 AM 11.3°F-11.5°C 11.1°F-11.6°C 99% Calm Calm -- 29.40 in995.6 mb - 0.00 in0.0 mm 0.00 in0.0 mm
07:00 AM 10.0°F-12.2°C 6.1°F-14.4°C 84% Calm Calm -- 29.42 in996.3 mb - 0.00 in0.0 mm 0.00 in0.0 mm
08:00 AM 9.1°F-12.7°C 8.9°F-12.8°C 99% Calm Calm -- 29.45 in997.3 mb - 0.00 in0.0 mm 0.00 in0.0 mm
09:00 AM 8.6°F-13.0°C 8.4°F-13.1°C 99% Calm Calm -- 29.46 in997.6 mb - 0.00 in0.0 mm 0.00 in0.0 mm
10:00 AM 12.2°F-11.0°C 12.0°F-11.1°C 99% Calm Calm -- 29.47 in998.0 mb - 0.00 in0.0 mm 0.00 in0.0 mm
11:00 AM 15.3°F-9.3°C 15.1°F-9.4°C 99% Calm Calm -- 29.51 in999.3 mb - 0.00 in0.0 mm 0.00 in0.0 mm
12:00 PM 18.7°F-7.4°C 18.5°F-7.5°C 99% Calm Calm 1.2 mph1.9 kmh 29.53 in1000.0 mb - 0.00 in0.0 mm 0.00 in0.0 mm
01:00 PM 21.2°F-6.0°C 12.9°F-10.6°C 70% Calm Calm -- 29.52 in999.7 mb - 0.00 in0.0 mm 0.00 in0.0 mm
02:00 PM 20.0°F-6.7°C 19.8°F-6.8°C 99% Calm Calm -- 29.51 in999.3 mb - 0.00 in0.0 mm 0.00 in0.0 mm
03:00 PM 21.9°F-5.6°C 10.8°F-11.8°C 62% Calm Calm -- 29.52 in999.7 mb - 0.00 in0.0 mm 0.00 in0.0 mm
04:00 PM 20.1°F-6.6°C 19.9°F-6.7°C 99% Calm Calm -- 29.52 in999.7 mb - 0.00 in0.0 mm 0.00 in0.0 mm
05:00 PM 19.4°F-7.0°C 5.0°F-15.0°C 53% Calm Calm -- 29.52 in999.7 mb - 0.00 in0.0 mm 0.00 in0.0 mm
06:00 PM 18.0°F-7.8°C 17.8°F-7.9°C 99% Calm Calm -- 29.53 in1000.0 mb - 0.00 in0.0 mm 0.00 in0.0 mm
07:00 PM 17.1°F-8.3°C 5.6°F-14.7°C 60% Calm Calm 2.3 mph3.7 kmh 29.54 in1000.3 mb - 0.00 in0.0 mm 0.00 in0.0 mm
08:00 PM 15.8°F-9.0°C 15.6°F-9.1°C 99% Calm Calm -- 29.56 in1001.0 mb - 0.00 in0.0 mm 0.00 in0.0 mm
09:00 PM 14.2°F-9.9°C 10.0°F-12.2°C 83% Calm Calm -- 29.57 in1001.4 mb - 0.00 in0.0 mm 0.00 in0.0 mm
10:00 PM 12.2°F-11.0°C 12.0°F-11.1°C 99% Calm Calm -- 29.58 in1001.7 mb - 0.00 in0.0 mm 0.00 in0.0 mm
11:00 PM 11.7°F-11.3°C 11.5°F-11.4°C 99% Calm Calm -- 29.60 in1002.4 mb - 0.00 in0.0 mm 0.00 in0.0 mm